sensor_id;sensor_type;location;lat;lon;timestamp;pressure;altitude;pressure_sealevel;temperature;humidity
30682;BME280;17439;48.092;11.842;2022-08-02T00:00:10;95608.88;;;22.20;51.68
30682;BME280;17439;48.092;11.842;2022-08-02T00:02:37;95600.19;;;22.18;51.78
30682;BME280;17439;48.092;11.842;2022-08-02T00:05:05;95601.34;;;22.17;51.29
30682;BME280;17439;48.092;11.842;2022-08-02T00:07:32;95605.28;;;22.16;51.65
30682;BME280;17439;48.092;11.842;2022-08-02T00:10:07;95604.88;;;22.17;51.38
30682;BME280;17439;48.092;11.842;2022-08-02T00:12:35;95607.28;;;22.19;51.66
30682;BME280;17439;48.092;11.842;2022-08-02T00:15:03;95601.38;;;22.20;51.28
30682;BME280;17439;48.092;11.842;2022-08-02T00:17:29;95603.34;;;22.20;51.46
30682;BME280;17439;48.092;11.842;2022-08-02T00:19:56;95614.38;;;22.20;51.55
30682;BME280;17439;48.092;11.842;2022-08-02T00:22:23;95621.50;;;22.21;51.64
30682;BME280;17439;48.092;11.842;2022-08-02T00:24:49;95620.31;;;22.22;51.28
30682;BME280;17439;48.092;11.842;2022-08-02T00:27:17;95621.13;;;22.22;51.33
30682;BME280;17439;48.092;11.842;2022-08-02T00:29:43;95629.41;;;22.22;51.15
30682;BME280;17439;48.092;11.842;2022-08-02T00:32:21;95632.94;;;22.23;51.01
30682;BME280;17439;48.092;11.842;2022-08-02T00:34:48;95634.13;;;22.22;51.29
30682;BME280;17439;48.092;11.842;2022-08-02T00:37:15;95638.06;;;22.21;51.05
30682;BME280;17439;48.092;11.842;2022-08-02T00:39:42;95638.84;;;22.21;50.90
30682;BME280;17439;48.092;11.842;2022-08-02T00:42:09;95640.00;;;22.20;51.21
30682;BME280;17439;48.092;11.842;2022-08-02T00:44:37;95637.22;;;22.17;50.84
30682;BME280;17439;48.092;11.842;2022-08-02T00:47:03;95636.06;;;22.18;51.15
30682;BME280;17439;48.092;11.842;2022-08-02T00:49:30;95638.41;;;22.16;51.03
30682;BME280;17439;48.092;11.842;2022-08-02T00:51:58;95640.75;;;22.14;50.74
30682;BME280;17439;48.092;11.842;2022-08-02T00:54:26;95645.88;;;22.12;51.15
30682;BME280;17439;48.092;11.842;2022-08-02T00:56:52;95639.13;;;22.09;50.87
30682;BME280;17439;48.092;11.842;2022-08-02T00:59:19;95644.25;;;22.07;51.41
30682;BME280;17439;48.092;11.842;2022-08-02T01:01:46;95640.28;;;22.04;51.38
30682;BME280;17439;48.092;11.842;2022-08-02T01:04:26;95639.50;;;22.04;51.74
30682;BME280;17439;48.092;11.842;2022-08-02T01:07:01;95637.13;;;22.02;52.43
30682;BME280;17439;48.092;11.842;2022-08-02T01:09:39;95635.13;;;22.03;51.92
30682;BME280;17439;48.092;11.842;2022-08-02T01:12:06;95627.25;;;22.01;52.04
30682;BME280;17439;48.092;11.842;2022-08-02T01:14:33;95631.97;;;22.01;51.97
30682;BME280;17439;48.092;11.842;2022-08-02T01:23:08;95637.00;;;21.91;53.95
30682;BME280;17439;48.092;11.842;2022-08-02T01:31:17;95628.69;;;21.88;53.98
30682;BME280;17439;48.092;11.842;2022-08-02T01:33:49;95622.78;;;21.86;53.75
30682;BME280;17439;48.092;11.842;2022-08-02T01:36:20;95614.06;;;21.84;53.41
30682;BME280;17439;48.092;11.842;2022-08-02T01:38:52;95615.25;;;21.83;53.70
30682;BME280;17439;48.092;11.842;2022-08-02T01:41:23;95621.16;;;21.81;53.53
30682;BME280;17439;48.092;11.842;2022-08-02T01:43:54;95616.41;;;21.78;53.58
30682;BME280;17439;48.092;11.842;2022-08-02T01:46:23;95617.19;;;21.79;53.27
30682;BME280;17439;48.092;11.842;2022-08-02T01:48:52;95622.66;;;21.75;53.34
30682;BME280;17439;48.092;11.842;2022-08-02T01:51:20;95612.81;;;21.74;53.09
30682;BME280;17439;48.092;11.842;2022-08-02T01:53:48;95617.50;;;21.70;53.14
30682;BME280;17439;48.092;11.842;2022-08-02T01:56:17;95623.41;;;21.68;52.80
30682;BME280;17439;48.092;11.842;2022-08-02T01:58:46;95626.09;;;21.65;53.15
30682;BME280;17439;48.092;11.842;2022-08-02T02:01:13;95620.56;;;21.61;53.18
30682;BME280;17439;48.092;11.842;2022-08-02T02:03:46;95622.50;;;21.57;52.95
30682;BME280;17439;48.092;11.842;2022-08-02T02:06:14;95616.13;;;21.53;52.91
30682;BME280;17439;48.092;11.842;2022-08-02T02:08:42;95613.69;;;21.48;53.27
30682;BME280;17439;48.092;11.842;2022-08-02T02:11:09;95619.84;;;21.34;53.51
30682;BME280;17439;48.092;11.842;2022-08-02T02:13:57;95610.44;;;21.38;52.92
30682;BME280;17439;48.092;11.842;2022-08-02T02:16:26;95623.84;;;21.40;53.12
30682;BME280;17439;48.092;11.842;2022-08-02T02:18:53;95618.31;;;21.36;53.20
30682;BME280;17439;48.092;11.842;2022-08-02T02:21:20;95615.09;;;21.34;53.34
30682;BME280;17439;48.092;11.842;2022-08-02T02:23:47;95614.69;;;21.32;53.80
30682;BME280;17439;48.092;11.842;2022-08-02T02:26:17;95609.16;;;21.29;53.39
30682;BME280;17439;48.092;11.842;2022-08-02T02:29:00;95622.50;;;21.27;54.21
30682;BME280;17439;48.092;11.842;2022-08-02T02:31:31;95625.22;;;21.23;54.84
30682;BME280;17439;48.092;11.842;2022-08-02T02:34:02;95621.28;;;21.20;53.96
30682;BME280;17439;48.092;11.842;2022-08-02T02:36:32;95614.53;;;21.18;54.73
30682;BME280;17439;48.092;11.842;2022-08-02T02:39:02;95621.22;;;21.17;54.17
30682;BME280;17439;48.092;11.842;2022-08-02T02:41:29;95617.63;;;21.13;53.93
30682;BME280;17439;48.092;11.842;2022-08-02T02:43:59;95618.00;;;21.11;54.75
30682;BME280;17439;48.092;11.842;2022-08-02T02:46:29;95616.78;;;21.09;55.01
30682;BME280;17439;48.092;11.842;2022-08-02T02:48:56;95621.88;;;21.07;54.53
30682;BME280;17439;48.092;11.842;2022-08-02T02:51:23;95622.25;;;21.05;54.66
30682;BME280;17439;48.092;11.842;2022-08-02T02:53:51;95619.09;;;21.03;54.41
30682;BME280;17439;48.092;11.842;2022-08-02T02:56:39;95632.28;;;20.90;55.19
30682;BME280;17439;48.092;11.842;2022-08-02T02:59:07;95628.47;;;20.98;54.59
30682;BME280;17439;48.092;11.842;2022-08-02T03:01:34;95616.28;;;20.99;54.66
30682;BME280;17439;48.092;11.842;2022-08-02T03:04:23;95628.09;;;21.00;55.10
30682;BME280;17439;48.092;11.842;2022-08-02T03:06:50;95640.28;;;20.99;54.76
30682;BME280;17439;48.092;11.842;2022-08-02T03:09:17;95628.84;;;20.97;55.11
30682;BME280;17439;48.092;11.842;2022-08-02T03:11:43;95631.22;;;20.98;55.04
30682;BME280;17439;48.092;11.842;2022-08-02T03:14:11;95628.47;;;20.98;55.01
30682;BME280;17439;48.092;11.842;2022-08-02T03:16:46;95631.22;;;20.98;55.99
30682;BME280;17439;48.092;11.842;2022-08-02T03:19:13;95645.84;;;21.02;55.07
30682;BME280;17439;48.092;11.842;2022-08-02T03:21:44;95641.91;;;21.04;55.73
30682;BME280;17439;48.092;11.842;2022-08-02T03:24:12;95640.81;;;21.08;55.20
30682;BME280;17439;48.092;11.842;2022-08-02T03:26:40;95648.69;;;21.10;54.79
30682;BME280;17439;48.092;11.842;2022-08-02T03:29:07;95643.19;;;21.10;54.75
30682;BME280;17439;48.092;11.842;2022-08-02T03:31:39;95638.09;;;21.12;55.49
30682;BME280;17439;48.092;11.842;2022-08-02T03:34:07;95643.59;;;21.12;54.67
30682;BME280;17439;48.092;11.842;2022-08-02T03:36:34;95634.91;;;21.10;55.01
30682;BME280;17439;48.092;11.842;2022-08-02T03:39:02;95632.16;;;21.10;55.42
30682;BME280;17439;48.092;11.842;2022-08-02T03:41:30;95643.56;;;21.08;55.58
30682;BME280;17439;48.092;11.842;2022-08-02T03:43:58;95644.72;;;21.07;55.54
30682;BME280;17439;48.092;11.842;2022-08-02T03:46:26;95645.09;;;21.06;55.31
30682;BME280;17439;48.092;11.842;2022-08-02T03:48:53;95650.59;;;21.06;55.28
30682;BME280;17439;48.092;11.842;2022-08-02T03:51:21;95646.66;;;21.03;55.51
30682;BME280;17439;48.092;11.842;2022-08-02T03:53:48;95654.09;;;21.02;55.37
30682;BME280;17439;48.092;11.842;2022-08-02T03:56:15;95651.34;;;21.02;55.44
30682;BME280;17439;48.092;11.842;2022-08-02T03:58:42;95658.47;;;21.04;55.56
30682;BME280;17439;48.092;11.842;2022-08-02T04:01:14;95659.63;;;21.02;55.44
30682;BME280;17439;48.092;11.842;2022-08-02T04:03:41;95655.69;;;21.04;55.53
30682;BME280;17439;48.092;11.842;2022-08-02T04:06:08;95662.81;;;21.05;55.43
30682;BME280;17439;48.092;11.842;2022-08-02T04:08:34;95665.56;;;21.05;55.73
30682;BME280;17439;48.092;11.842;2022-08-02T04:11:05;95674.63;;;21.05;55.57
30682;BME280;17439;48.092;11.842;2022-08-02T04:13:34;95671.88;;;21.05;55.73
30682;BME280;17439;48.092;11.842;2022-08-02T04:16:14;95674.25;;;21.07;56.18
30682;BME280;17439;48.092;11.842;2022-08-02T04:18:53;95666.75;;;21.07;56.28
30682;BME280;17439;48.092;11.842;2022-08-02T04:21:23;95667.19;;;21.09;56.18
30682;BME280;17439;48.092;11.842;2022-08-02T04:23:51;95662.53;;;21.13;55.88
30682;BME280;17439;48.092;11.842;2022-08-02T04:26:19;95663.75;;;21.16;56.15
30682;BME280;17439;48.092;11.842;2022-08-02T04:28:54;95648.84;;;21.20;56.28
30682;BME280;17439;48.092;11.842;2022-08-02T04:31:22;95649.66;;;21.25;56.00
30682;BME280;17439;48.092;11.842;2022-08-02T04:33:49;95661.16;;;21.30;55.99
30682;BME280;17439;48.092;11.842;2022-08-02T04:36:15;95664.38;;;21.36;56.16
30682;BME280;17439;48.092;11.842;2022-08-02T04:38:57;95664.03;;;21.41;56.09
30682;BME280;17439;48.092;11.842;2022-08-02T04:41:38;95670.00;;;21.47;56.29
30682;BME280;17439;48.092;11.842;2022-08-02T04:44:09;95678.41;;;21.54;55.63
30682;BME280;17439;48.092;11.842;2022-08-02T04:46:36;95672.97;;;21.61;55.71
30682;BME280;17439;48.092;11.842;2022-08-02T04:49:02;95686.41;;;21.66;55.61
30682;BME280;17439;48.092;11.842;2022-08-02T04:51:34;95695.16;;;21.72;55.59
30682;BME280;17439;48.092;11.842;2022-08-02T04:54:04;95686.94;;;21.79;55.46
30682;BME280;17439;48.092;11.842;2022-08-02T04:56:35;95688.56;;;21.84;55.25
30682;BME280;17439;48.092;11.842;2022-08-02T04:59:01;95689.81;;;21.90;55.40
30682;BME280;17439;48.092;11.842;2022-08-02T05:01:28;95691.81;;;21.93;55.58
30682;BME280;17439;48.092;11.842;2022-08-02T05:03:55;95691.84;;;21.97;55.29
30682;BME280;17439;48.092;11.842;2022-08-02T05:06:21;95689.16;;;22.00;55.05
30682;BME280;17439;48.092;11.842;2022-08-02T05:08:48;95691.94;;;22.04;55.13
30682;BME280;17439;48.092;11.842;2022-08-02T05:11:20;95700.25;;;22.07;55.25
30682;BME280;17439;48.092;11.842;2022-08-02T05:13:46;95708.56;;;22.11;55.42
30682;BME280;17439;48.092;11.842;2022-08-02T05:16:25;95707.03;;;22.17;55.08
30682;BME280;17439;48.092;11.842;2022-08-02T05:18:57;95706.34;;;22.24;55.13
30682;BME280;17439;48.092;11.842;2022-08-02T05:21:24;95711.50;;;22.29;55.27
30682;BME280;17439;48.092;11.842;2022-08-02T05:23:50;95706.44;;;22.35;55.09
30682;BME280;17439;48.092;11.842;2022-08-02T05:26:17;95706.50;;;22.38;55.12
30682;BME280;17439;48.092;11.842;2022-08-02T05:28:44;95703.34;;;22.40;54.64
30682;BME280;17439;48.092;11.842;2022-08-02T05:31:10;95697.44;;;22.41;54.93
30682;BME280;17439;48.092;11.842;2022-08-02T05:33:39;95686.41;;;22.41;54.74
30682;BME280;17439;48.092;11.842;2022-08-02T05:36:06;95684.81;;;22.40;54.72
30682;BME280;17439;48.092;11.842;2022-08-02T05:38:32;95684.81;;;22.40;54.73
30682;BME280;17439;48.092;11.842;2022-08-02T05:41:03;95679.28;;;22.40;54.80
30682;BME280;17439;48.092;11.842;2022-08-02T05:43:31;95699.78;;;22.39;55.00
30682;BME280;17439;48.092;11.842;2022-08-02T05:45:58;95691.47;;;22.36;54.82
30682;BME280;17439;48.092;11.842;2022-08-02T05:48:25;95698.16;;;22.35;54.75
30682;BME280;17439;48.092;11.842;2022-08-02T05:51:12;95703.28;;;22.33;54.89
30682;BME280;17439;48.092;11.842;2022-08-02T05:53:50;95708.00;;;22.32;55.36
30682;BME280;17439;48.092;11.842;2022-08-02T05:56:45;95695.38;;;22.31;54.88
30682;BME280;17439;48.092;11.842;2022-08-02T05:59:25;95704.50;;;22.35;55.09
30682;BME280;17439;48.092;11.842;2022-08-02T06:02:02;95704.91;;;22.37;55.61
30682;BME280;17439;48.092;11.842;2022-08-02T06:04:44;95712.41;;;22.40;55.62
30682;BME280;17439;48.092;11.842;2022-08-02T06:07:18;95712.84;;;22.46;55.10
30682;BME280;17439;48.092;11.842;2022-08-02T06:09:45;95709.38;;;22.53;55.25
30682;BME280;17439;48.092;11.842;2022-08-02T06:12:15;95720.09;;;22.61;54.99
30682;BME280;17439;48.092;11.842;2022-08-02T06:14:43;95721.72;;;22.70;54.70
30682;BME280;17439;48.092;11.842;2022-08-02T06:17:12;95720.22;;;22.79;54.00
30682;BME280;17439;48.092;11.842;2022-08-02T06:19:39;95720.56;;;22.74;53.51
30682;BME280;17439;48.092;11.842;2022-08-02T06:22:17;95710.44;;;22.93;53.73
30682;BME280;17439;48.092;11.842;2022-08-02T06:25:02;95716.06;;;23.04;53.64
30682;BME280;17439;48.092;11.842;2022-08-02T06:27:29;95716.00;;;23.00;53.45
30682;BME280;17439;48.092;11.842;2022-08-02T06:29:57;95714.97;;;23.19;53.20
30682;BME280;17439;48.092;11.842;2022-08-02T06:32:25;95713.84;;;23.31;52.01
30682;BME280;17439;48.092;11.842;2022-08-02T06:34:52;95709.16;;;23.39;52.52
30682;BME280;17439;48.092;11.842;2022-08-02T06:40:05;95711.59;;;23.54;51.29
30682;BME280;17439;48.092;11.842;2022-08-02T06:43:10;95710.03;;;23.61;50.92
30682;BME280;17439;48.092;11.842;2022-08-02T06:45:38;95711.66;;;23.69;51.49
30682;BME280;17439;48.092;11.842;2022-08-02T06:48:06;95702.97;;;23.74;51.12
30682;BME280;17439;48.092;11.842;2022-08-02T06:50:34;95704.97;;;23.77;50.92
30682;BME280;17439;48.092;11.842;2022-08-02T06:53:00;95698.66;;;23.84;51.20
30682;BME280;17439;48.092;11.842;2022-08-02T06:55:27;95707.78;;;23.92;51.18
30682;BME280;17439;48.092;11.842;2022-08-02T06:57:53;95700.28;;;23.96;50.93
30682;BME280;17439;48.092;11.842;2022-08-02T07:00:20;95695.53;;;24.00;50.61
30682;BME280;17439;48.092;11.842;2022-08-02T07:02:48;95698.34;;;24.07;50.84
30682;BME280;17439;48.092;11.842;2022-08-02T07:05:14;95696.34;;;24.11;50.21
30682;BME280;17439;48.092;11.842;2022-08-02T07:07:41;95701.09;;;24.18;50.71
30682;BME280;17439;48.092;11.842;2022-08-02T07:10:08;95701.13;;;24.25;50.84
30682;BME280;17439;48.092;11.842;2022-08-02T07:12:35;95697.56;;;24.32;50.67
30682;BME280;17439;48.092;11.842;2022-08-02T07:15:04;95697.59;;;24.39;50.23
30682;BME280;17439;48.092;11.842;2022-08-02T07:17:31;95696.41;;;24.47;50.37
30682;BME280;17439;48.092;11.842;2022-08-02T07:19:59;95701.53;;;24.56;49.80
30682;BME280;17439;48.092;11.842;2022-08-02T07:22:26;95696.81;;;24.63;49.75
30682;BME280;17439;48.092;11.842;2022-08-02T07:24:55;95703.16;;;24.71;49.60
30682;BME280;17439;48.092;11.842;2022-08-02T07:27:23;95706.31;;;24.77;49.21
30682;BME280;17439;48.092;11.842;2022-08-02T07:29:49;95706.69;;;24.83;49.05
30682;BME280;17439;48.092;11.842;2022-08-02T07:32:17;95709.06;;;24.84;48.89
30682;BME280;17439;48.092;11.842;2022-08-02T07:34:44;95707.91;;;24.71;48.67
30682;BME280;17439;48.092;11.842;2022-08-02T07:37:18;95702.34;;;24.81;48.82
30682;BME280;17439;48.092;11.842;2022-08-02T07:40:05;95693.63;;;24.83;48.88
30682;BME280;17439;48.092;11.842;2022-08-02T07:42:38;95696.81;;;24.85;48.68
30682;BME280;17439;48.092;11.842;2022-08-02T07:45:05;95701.56;;;24.88;48.65
30682;BME280;17439;48.092;11.842;2022-08-02T07:47:35;95699.97;;;24.94;47.90
30682;BME280;17439;48.092;11.842;2022-08-02T07:50:03;95701.53;;;25.03;47.16
30682;BME280;17439;48.092;11.842;2022-08-02T07:52:29;95692.41;;;25.06;47.31
30682;BME280;17439;48.092;11.842;2022-08-02T07:54:56;95692.00;;;25.11;47.37
30682;BME280;17439;48.092;11.842;2022-08-02T07:57:23;95694.75;;;25.14;47.49
30682;BME280;17439;48.092;11.842;2022-08-02T07:59:49;95694.75;;;25.18;47.60
30682;BME280;17439;48.092;11.842;2022-08-02T08:02:16;95693.56;;;25.19;47.52
30682;BME280;17439;48.092;11.842;2022-08-02T08:04:43;95698.69;;;25.24;46.90
30682;BME280;17439;48.092;11.842;2022-08-02T08:07:10;95691.19;;;25.25;47.28
30682;BME280;17439;48.092;11.842;2022-08-02T08:09:37;95697.13;;;25.30;47.00
30682;BME280;17439;48.092;11.842;2022-08-02T08:12:05;95688.78;;;25.34;46.91
30682;BME280;17439;48.092;11.842;2022-08-02T08:14:31;95691.97;;;25.25;47.39
30682;BME280;17439;48.092;11.842;2022-08-02T08:16:59;95682.81;;;25.43;45.61
30682;BME280;17439;48.092;11.842;2022-08-02T08:19:25;95684.00;;;25.49;45.73
30682;BME280;17439;48.092;11.842;2022-08-02T08:22:12;95680.81;;;25.50;44.74
30682;BME280;17439;48.092;11.842;2022-08-02T08:24:40;95676.03;;;25.51;45.01
30682;BME280;17439;48.092;11.842;2022-08-02T08:27:06;95676.44;;;25.49;45.61
30682;BME280;17439;48.092;11.842;2022-08-02T08:29:33;95677.63;;;25.48;46.20
30682;BME280;17439;48.092;11.842;2022-08-02T08:32:00;95677.63;;;25.52;45.82
30682;BME280;17439;48.092;11.842;2022-08-02T08:34:26;95682.34;;;25.62;45.23
30682;BME280;17439;48.092;11.842;2022-08-02T08:36:53;95683.13;;;25.66;45.08
30682;BME280;17439;48.092;11.842;2022-08-02T08:39:19;95678.72;;;25.69;45.35
30682;BME280;17439;48.092;11.842;2022-08-02T08:41:46;95670.00;;;25.74;44.60
30682;BME280;17439;48.092;11.842;2022-08-02T08:44:13;95673.94;;;25.77;44.54
30682;BME280;17439;48.092;11.842;2022-08-02T08:46:41;95670.72;;;25.82;44.89
30682;BME280;17439;48.092;11.842;2022-08-02T08:49:11;95672.69;;;25.85;44.51
30682;BME280;17439;48.092;11.842;2022-08-02T08:51:43;95671.88;;;25.88;44.54
30682;BME280;17439;48.092;11.842;2022-08-02T08:54:14;95669.09;;;25.88;44.96
30682;BME280;17439;48.092;11.842;2022-08-02T08:56:42;95664.34;;;25.92;45.70
30682;BME280;17439;48.092;11.842;2022-08-02T08:59:09;95672.69;;;25.88;45.94
30682;BME280;17439;48.092;11.842;2022-08-02T09:01:36;95672.97;;;26.12;44.41
30682;BME280;17439;48.092;11.842;2022-08-02T09:04:17;95674.09;;;26.22;44.15
30682;BME280;17439;48.092;11.842;2022-08-02T09:06:43;95670.47;;;26.29;44.47
30682;BME280;17439;48.092;11.842;2022-08-02T09:09:10;95675.56;;;26.37;43.93
30682;BME280;17439;48.092;11.842;2022-08-02T09:11:37;95668.00;;;26.41;43.63
30682;BME280;17439;48.092;11.842;2022-08-02T09:14:03;95668.75;;;26.46;43.98
30682;BME280;17439;48.092;11.842;2022-08-02T09:16:31;95672.25;;;26.53;42.99
30682;BME280;17439;48.092;11.842;2022-08-02T09:18:58;95665.47;;;26.58;43.46
30682;BME280;17439;48.092;11.842;2022-08-02T09:21:34;95660.25;;;26.64;43.22
30682;BME280;17439;48.092;11.842;2022-08-02T09:24:02;95673.72;;;26.72;42.54
30682;BME280;17439;48.092;11.842;2022-08-02T09:26:40;95667.31;;;26.75;42.91
30682;BME280;17439;48.092;11.842;2022-08-02T09:29:07;95665.69;;;26.82;43.18
30682;BME280;17439;48.092;11.842;2022-08-02T09:31:34;95671.19;;;26.89;43.25
30682;BME280;17439;48.092;11.842;2022-08-02T09:34:01;95662.38;;;26.94;43.80
30682;BME280;17439;48.092;11.842;2022-08-02T09:36:38;95667.50;;;26.99;43.15
30682;BME280;17439;48.092;11.842;2022-08-02T09:39:07;95670.19;;;27.10;43.97
30682;BME280;17439;48.092;11.842;2022-08-02T09:41:36;95672.88;;;27.17;43.20
30682;BME280;17439;48.092;11.842;2022-08-02T09:44:04;95662.03;;;27.26;43.20
30682;BME280;17439;48.092;11.842;2022-08-02T09:46:37;95658.03;;;27.35;42.91
30682;BME280;17439;48.092;11.842;2022-08-02T09:49:13;95656.66;;;27.46;42.82
30682;BME280;17439;48.092;11.842;2022-08-02T09:54:17;95661.59;;;27.66;41.04
30682;BME280;17439;48.092;11.842;2022-08-02T09:56:57;95658.25;;;27.78;41.95
30682;BME280;17439;48.092;11.842;2022-08-02T09:59:25;95665.22;;;27.94;39.79
30682;BME280;17439;48.092;11.842;2022-08-02T10:01:54;95655.44;;;28.09;39.59
30682;BME280;17439;48.092;11.842;2022-08-02T10:04:30;95655.22;;;28.23;39.43
30682;BME280;17439;48.092;11.842;2022-08-02T10:07:17;95656.22;;;28.37;39.56
30682;BME280;17439;48.092;11.842;2022-08-02T10:09:47;95656.91;;;28.45;39.86
30682;BME280;17439;48.092;11.842;2022-08-02T10:12:14;95648.84;;;28.50;38.91
30682;BME280;17439;48.092;11.842;2022-08-02T10:14:41;95660.31;;;28.56;39.09
30682;BME280;17439;48.092;11.842;2022-08-02T10:17:08;95652.00;;;28.52;39.21
30682;BME280;17439;48.092;11.842;2022-08-02T10:19:35;95650.78;;;28.53;39.08
30682;BME280;17439;48.092;11.842;2022-08-02T10:22:21;95652.38;;;28.54;39.35
30682;BME280;17439;48.092;11.842;2022-08-02T10:24:49;95645.41;;;28.66;37.75
30682;BME280;17439;48.092;11.842;2022-08-02T10:27:20;95649.72;;;28.71;38.59
30682;BME280;17439;48.092;11.842;2022-08-02T10:29:48;95643.59;;;28.80;39.10
30682;BME280;17439;48.092;11.842;2022-08-02T10:32:34;95641.41;;;28.91;38.83
30682;BME280;17439;48.092;11.842;2022-08-02T10:35:09;95647.25;;;28.97;38.25
30682;BME280;17439;48.092;11.842;2022-08-02T10:37:45;95647.25;;;29.20;36.64
30682;BME280;17439;48.092;11.842;2022-08-02T10:40:13;95644.03;;;29.22;37.24
30682;BME280;17439;48.092;11.842;2022-08-02T10:42:45;95643.25;;;29.21;36.94
30682;BME280;17439;48.092;11.842;2022-08-02T10:45:15;95647.59;;;29.22;37.48
30682;BME280;17439;48.092;11.842;2022-08-02T10:48:08;95636.91;;;29.17;36.99
30682;BME280;17439;48.092;11.842;2022-08-02T10:53:22;95639.22;;;29.22;38.04
30682;BME280;17439;48.092;11.842;2022-08-02T10:55:50;95633.59;;;29.26;37.61
30682;BME280;17439;48.092;11.842;2022-08-02T10:58:22;95634.81;;;29.25;37.00
30682;BME280;17439;48.092;11.842;2022-08-02T11:00:52;95628.78;;;29.26;37.66
30682;BME280;17439;48.092;11.842;2022-08-02T11:06:01;95632.56;;;29.36;36.76
30682;BME280;17439;48.092;11.842;2022-08-02T11:08:29;95632.88;;;29.42;36.33
30682;BME280;17439;48.092;11.842;2022-08-02T11:11:15;95631.59;;;29.46;35.57
30682;BME280;17439;48.092;11.842;2022-08-02T11:14:05;95626.06;;;29.43;35.42
30682;BME280;17439;48.092;11.842;2022-08-02T11:19:26;95621.97;;;29.47;36.92
30682;BME280;17439;48.092;11.842;2022-08-02T11:22:05;95617.19;;;29.48;35.50
30682;BME280;17439;48.092;11.842;2022-08-02T11:24:33;95611.09;;;29.53;36.41
30682;BME280;17439;48.092;11.842;2022-08-02T11:27:03;95617.03;;;29.55;36.46
30682;BME280;17439;48.092;11.842;2022-08-02T11:29:32;95599.41;;;29.58;34.92
30682;BME280;17439;48.092;11.842;2022-08-02T11:32:05;95601.84;;;29.56;35.93
30682;BME280;17439;48.092;11.842;2022-08-02T11:34:32;95602.63;;;29.57;35.81
30682;BME280;17439;48.092;11.842;2022-08-02T11:37:03;95595.75;;;29.61;34.76
30682;BME280;17439;48.092;11.842;2022-08-02T11:39:30;95591.66;;;29.66;34.17
30682;BME280;17439;48.092;11.842;2022-08-02T11:41:59;95599.19;;;29.69;33.60
30682;BME280;17439;48.092;11.842;2022-08-02T11:44:27;95589.22;;;29.68;33.82
30682;BME280;17439;48.092;11.842;2022-08-02T11:47:00;95593.69;;;29.65;34.35
30682;BME280;17439;48.092;11.842;2022-08-02T11:49:27;95586.72;;;29.74;33.40
30682;BME280;17439;48.092;11.842;2022-08-02T11:51:59;95589.84;;;29.76;34.24
30682;BME280;17439;48.092;11.842;2022-08-02T11:54:30;95586.06;;;29.86;33.38
30682;BME280;17439;48.092;11.842;2022-08-02T11:57:20;95581.16;;;29.90;33.92
30682;BME280;17439;48.092;11.842;2022-08-02T11:59:51;95579.44;;;29.96;34.12
30682;BME280;17439;48.092;11.842;2022-08-02T12:02:21;95574.03;;;30.06;34.27
30682;BME280;17439;48.092;11.842;2022-08-02T12:05:03;95575.84;;;30.12;33.38
30682;BME280;17439;48.092;11.842;2022-08-02T12:07:37;95583.28;;;30.19;33.58
30682;BME280;17439;48.092;11.842;2022-08-02T12:10:19;95590.63;;;30.29;32.56
30682;BME280;17439;48.092;11.842;2022-08-02T12:12:55;95593.00;;;30.31;33.05
30682;BME280;17439;48.092;11.842;2022-08-02T12:15:32;95597.78;;;30.30;32.69
30682;BME280;17439;48.092;11.842;2022-08-02T12:18:00;95594.13;;;30.33;33.52
30682;BME280;17439;48.092;11.842;2022-08-02T12:20:35;95595.34;;;30.32;32.16
30682;BME280;17439;48.092;11.842;2022-08-02T12:23:03;95592.91;;;30.34;33.50
30682;BME280;17439;48.092;11.842;2022-08-02T12:25:30;95602.44;;;30.37;33.55
30682;BME280;17439;48.092;11.842;2022-08-02T12:28:21;95594.53;;;30.32;33.42
30682;BME280;17439;48.092;11.842;2022-08-02T12:30:58;95596.47;;;30.35;33.32
30682;BME280;17439;48.092;11.842;2022-08-02T12:33:28;95594.97;;;30.30;33.38
30682;BME280;17439;48.092;11.842;2022-08-02T12:35:55;95594.97;;;30.30;32.88
30682;BME280;17439;48.092;11.842;2022-08-02T12:38:22;95596.72;;;30.24;33.14
30682;BME280;17439;48.092;11.842;2022-08-02T12:40:48;95586.06;;;30.19;33.27
30682;BME280;17439;48.092;11.842;2022-08-02T12:43:20;95586.25;;;30.12;33.13
30682;BME280;17439;48.092;11.842;2022-08-02T12:45:51;95578.75;;;30.09;33.22
30682;BME280;17439;48.092;11.842;2022-08-02T12:48:36;95577.59;;;30.06;33.30
30682;BME280;17439;48.092;11.842;2022-08-02T12:51:30;95563.28;;;30.04;32.55
30682;BME280;17439;48.092;11.842;2022-08-02T12:54:25;95569.94;;;30.10;33.58
30682;BME280;17439;48.092;11.842;2022-08-02T12:57:08;95562.22;;;30.14;33.45
30682;BME280;17439;48.092;11.842;2022-08-02T12:59:38;95562.75;;;30.26;33.08
30682;BME280;17439;48.092;11.842;2022-08-02T13:02:08;95561.81;;;30.32;32.93
30682;BME280;17439;48.092;11.842;2022-08-02T13:04:35;95569.50;;;30.45;32.08
30682;BME280;17439;48.092;11.842;2022-08-02T13:07:03;95553.41;;;30.49;31.56
30682;BME280;17439;48.092;11.842;2022-08-02T13:09:40;95555.00;;;30.50;31.88
30682;BME280;17439;48.092;11.842;2022-08-02T13:12:07;95549.75;;;30.52;32.10
30682;BME280;17439;48.092;11.842;2022-08-02T13:14:34;95555.78;;;30.50;32.43
30682;BME280;17439;48.092;11.842;2022-08-02T13:17:07;95548.97;;;30.51;32.13
30682;BME280;17439;48.092;11.842;2022-08-02T13:19:35;95548.59;;;30.49;32.28
30682;BME280;17439;48.092;11.842;2022-08-02T13:22:01;95550.97;;;30.51;32.58
30682;BME280;17439;48.092;11.842;2022-08-02T13:24:37;95540.03;;;30.56;32.40
30682;BME280;17439;48.092;11.842;2022-08-02T13:27:23;95541.84;;;30.63;32.28
30682;BME280;17439;48.092;11.842;2022-08-02T13:29:51;95533.72;;;30.69;32.02
30682;BME280;17439;48.092;11.842;2022-08-02T13:32:17;95536.25;;;30.63;32.82